Time;durP1;ratioP1;P1;durP2;ratioP2;P2;SDS_P1;SDS_P2;PMS_P1;PMS_P2;Temp;Humidity;BMP_temperature;BMP_pressure;BME280_temperature;BME280_humidity;BME280_pressure;Samples;Min_cycle;Max_cycle;Signal;HPM_P1;HPM_P2
2023/09/13 00:01:07;;;;;;;15.57;9.80;;;;;;;17.61;100.00;97942.22;3138402;23;20089;-92
2023/09/13 00:02:24;;;;;;;12.90;9.45;;;;;;;17.61;100.00;97935.13;3124263;23;20029;-91
2023/09/13 00:03:40;;;;;;;13.15;9.23;;;;;;;17.58;100.00;97935.31;3144929;23;20453;-93
2023/09/13 00:04:56;;;;;;;11.88;9.50;;;;;;;17.61;100.00;97940.44;3168028;23;20053;-92
2023/09/13 00:06:12;;;;;;;11.30;9.23;;;;;;;17.71;100.00;97937.16;3159223;23;20042;-91
2023/09/13 00:07:27;;;;;;;13.68;9.55;;;;;;;17.71;100.00;97937.16;3157587;23;20412;-92
2023/09/13 00:08:43;;;;;;;13.63;9.43;;;;;;;17.63;100.00;97937.66;3167776;23;20033;-93
2023/09/13 00:10:00;;;;;;;13.98;9.73;;;;;;;17.68;100.00;97937.38;3147347;23;20034;-92
2023/09/13 00:11:15;;;;;;;13.75;9.38;;;;;;;17.60;100.00;97936.09;3155236;23;20026;-92
2023/09/13 00:12:31;;;;;;;10.85;8.60;;;;;;;17.67;100.00;97941.84;3163294;23;20029;-91
2023/09/13 00:13:46;;;;;;;14.25;9.60;;;;;;;17.78;100.00;97935.81;3147708;23;20455;-91
2023/09/13 00:15:02;;;;;;;13.38;9.40;;;;;;;17.81;100.00;97938.25;3154869;23;20081;-91
2023/09/13 00:16:18;;;;;;;13.85;9.68;;;;;;;17.81;100.00;97932.09;3163646;23;20033;-93
2023/09/13 00:17:34;;;;;;;11.88;9.25;;;;;;;17.85;100.00;97937.09;3162799;23;20018;-91
2023/09/13 00:18:49;;;;;;;13.65;9.07;;;;;;;17.78;100.00;97936.66;3163373;23;20208;-91
2023/09/13 00:20:07;;;;;;;10.55;8.50;;;;;;;17.73;100.00;97932.59;3164262;23;20439;-91
2023/09/13 00:21:22;;;;;;;12.65;8.82;;;;;;;17.59;100.00;97934.34;3162590;23;20025;-92
2023/09/13 00:22:38;;;;;;;12.30;9.30;;;;;;;17.54;100.00;97928.53;3148544;23;20022;-91
2023/09/13 00:23:53;;;;;;;11.73;8.82;;;;;;;17.45;100.00;97927.31;3153370;23;20021;-92
2023/09/13 00:25:09;;;;;;;16.45;10.00;;;;;;;17.44;100.00;97930.06;3156341;23;20475;-92
2023/09/13 00:26:25;;;;;;;13.77;10.13;;;;;;;17.35;100.00;97927.06;3153463;23;20026;-92
2023/09/13 00:27:40;;;;;;;13.23;9.65;;;;;;;17.22;100.00;97923.53;3147015;23;20085;-91
2023/09/13 00:28:57;;;;;;;12.25;9.20;;;;;;;17.16;100.00;97926.53;3153578;23;20022;-91
2023/09/13 00:30:13;;;;;;;12.30;9.88;;;;;;;17.27;100.00;97934.66;3147372;23;20074;-91
2023/09/13 00:31:30;;;;;;;12.85;9.68;;;;;;;17.27;100.00;97929.34;3137778;23;20065;-92
2023/09/13 00:32:45;;;;;;;13.15;9.23;;;;;;;17.38;100.00;97930.47;3153251;23;20398;-92
2023/09/13 00:34:01;;;;;;;17.02;9.25;;;;;;;17.27;100.00;97929.34;3163416;23;20029;-91
2023/09/13 00:35:17;;;;;;;18.15;10.15;;;;;;;17.32;100.00;97931.72;3164374;23;20022;-91
2023/09/13 00:36:33;;;;;;;16.63;10.82;;;;;;;17.27;100.00;97932.00;3163037;23;20105;-91
2023/09/13 00:37:50;;;;;;;16.63;9.95;;;;;;;17.30;100.00;97937.09;3164302;23;20033;-91
2023/09/13 00:39:06;;;;;;;12.02;8.98;;;;;;;17.24;100.00;97934.84;3161896;23;20081;-91
2023/09/13 00:40:21;;;;;;;13.43;9.57;;;;;;;17.25;100.00;97933.91;3163675;23;20025;-91
2023/09/13 00:41:37;;;;;;;15.98;9.88;;;;;;;17.24;100.00;97929.56;3147310;23;20022;-91
2023/09/13 00:42:53;;;;;;;12.45;9.70;;;;;;;17.11;100.00;97928.63;3138607;23;20070;-92
2023/09/13 00:44:09;;;;;;;13.18;9.90;;;;;;;17.19;100.00;97937.78;3155676;23;20032;-92
2023/09/13 00:45:25;;;;;;;12.85;9.48;;;;;;;17.17;100.00;97934.38;3164085;23;20450;-92
2023/09/13 00:46:44;;;;;;;12.63;9.65;;;;;;;17.13;100.00;97935.53;3148369;23;20690;-91
2023/09/13 00:48:00;;;;;;;13.48;9.60;;;;;;;17.08;100.00;97940.25;3139877;23;20363;-91
2023/09/13 00:49:16;;;;;;;14.30;10.07;;;;;;;17.11;100.00;97947.16;3139151;23;20473;-91
2023/09/13 00:50:32;;;;;;;13.52;9.13;;;;;;;16.97;100.00;97942.66;3156026;23;20408;-92
2023/09/13 00:51:50;;;;;;;12.82;9.73;;;;;;;17.00;100.00;97938.09;3148110;23;20034;-91
2023/09/13 00:53:06;;;;;;;18.10;10.48;;;;;;;17.01;100.00;97936.31;3155537;23;20025;-93
2023/09/13 00:54:22;;;;;;;13.57;9.82;;;;;;;16.90;100.00;97931.63;3148076;23;20014;-92
2023/09/13 00:55:39;;;;;;;13.68;10.27;;;;;;;16.92;100.00;97940.34;3154383;23;20030;-92
2023/09/13 00:56:55;;;;;;;13.25;10.00;;;;;;;17.02;100.00;97945.94;3165842;23;20333;-92
2023/09/13 00:58:11;;;;;;;14.18;10.05;;;;;;;17.05;100.00;97951.03;3164131;23;20036;-91
2023/09/13 00:59:26;;;;;;;14.20;10.35;;;;;;;16.91;100.00;97951.88;3165559;23;20022;-91
2023/09/13 01:00:42;;;;;;;14.20;9.63;;;;;;;16.68;100.00;97946.19;3148403;23;20114;-92
2023/09/13 01:01:59;;;;;;;13.55;9.63;;;;;;;16.76;100.00;97951.88;3125219;23;20022;-92
2023/09/13 01:03:16;;;;;;;14.13;10.18;;;;;;;16.72;100.00;97945.03;3145523;23;20026;-91
2023/09/13 01:04:35;;;;;;;13.80;10.18;;;;;;;16.85;100.00;97947.81;3148405;23;20077;-92
2023/09/13 01:05:54;;;;;;;13.07;9.73;;;;;;;16.81;100.00;97943.63;3155647;23;20041;-92
2023/09/13 01:07:09;;;;;;;11.50;9.32;;;;;;;16.82;100.00;97939.22;3162819;23;20025;-92
2023/09/13 01:08:26;;;;;;;15.13;9.57;;;;;;;16.88;100.00;97938.81;3163584;23;20184;-93
2023/09/13 01:09:41;;;;;;;15.10;8.98;;;;;;;17.00;100.00;97945.19;3163188;23;20028;-91
2023/09/13 01:10:58;;;;;;;16.13;9.90;;;;;;;17.11;100.00;97932.09;3164143;23;20022;-91
2023/09/13 01:12:13;;;;;;;13.82;9.70;;;;;;;17.11;100.00;97936.56;3164996;23;20026;-91
2023/09/13 01:13:29;;;;;;;12.10;9.60;;;;;;;16.97;100.00;97937.38;3163789;23;20085;-91
2023/09/13 01:14:44;;;;;;;12.88;10.77;;;;;;;17.11;100.00;97933.94;3147218;23;20086;-91
2023/09/13 01:16:14;;;;;;;12.98;9.95;;;;;;;17.12;100.00;97932.97;3138426;23;20092;-92
2023/09/13 01:17:43;;;;;;;12.75;9.50;;;;;;;17.07;100.00;97930.63;3157428;23;20545;-92
2023/09/13 01:19:41;;;;;;;14.30;9.52;;;;;;;16.90;100.00;97935.13;3164358;23;20390;-91
2023/09/13 01:21:32;;;;;;;11.57;8.80;;;;;;;16.71;100.00;97927.50;3163600;23;20021;-91
2023/09/13 01:23:11;;;;;;;14.20;9.93;;;;;;;16.73;100.00;97928.25;3147706;23;20014;-92
2023/09/13 01:24:41;;;;;;;14.02;9.38;;;;;;;16.75;100.00;97929.00;3143294;23;20022;-91
2023/09/13 01:26:18;;;;;;;14.55;9.27;;;;;;;16.83;100.00;97928.53;3157892;23;20018;-92
2023/09/13 01:27:53;;;;;;;13.35;9.88;;;;;;;16.87;100.00;97927.41;3164341;23;20077;-92
2023/09/13 01:29:14;;;;;;;12.93;9.85;;;;;;;16.74;100.00;97924.66;3164534;23;20024;-91
2023/09/13 01:30:30;;;;;;;13.25;10.07;;;;;;;16.61;100.00;97932.50;3163820;23;20018;-92
2023/09/13 01:31:47;;;;;;;12.52;9.25;;;;;;;16.85;100.00;97923.16;3147475;23;20021;-91
2023/09/13 01:33:02;;;;;;;15.75;10.88;;;;;;;16.96;100.00;97931.25;3154461;23;20072;-91
2023/09/13 01:34:18;;;;;;;12.93;9.75;;;;;;;16.99;100.00;97939.03;3165033;23;20021;-90
2023/09/13 01:35:33;;;;;;;16.00;10.30;;;;;;;16.83;100.00;97935.63;3147764;23;20382;-91
2023/09/13 01:36:49;;;;;;;14.43;9.63;;;;;;;16.91;100.00;97931.53;3140384;23;20022;-91
2023/09/13 01:38:04;;;;;;;13.15;9.75;;;;;;;17.03;100.00;97932.59;3154476;23;20459;-91
2023/09/13 01:39:20;;;;;;;14.30;10.15;;;;;;;16.97;100.00;97926.81;3164993;23;20022;-91
2023/09/13 01:40:40;;;;;;;12.38;9.55;;;;;;;16.99;100.00;97936.38;3147702;23;20022;-91
2023/09/13 01:42:03;;;;;;;14.40;10.00;;;;;;;16.99;100.00;97931.09;3139766;23;20045;-92
2023/09/13 01:43:20;;;;;;;13.70;10.52;;;;;;;17.07;100.00;97927.97;3156134;23;20449;-90
2023/09/13 01:44:40;;;;;;;16.38;10.63;;;;;;;16.99;100.00;97939.03;3149393;23;20097;-93
2023/09/13 01:45:56;;;;;;;14.88;9.75;;;;;;;16.95;100.00;97933.03;3155142;23;20018;-91
2023/09/13 01:47:14;;;;;;;14.98;10.27;;;;;;;16.84;100.00;97942.59;3165230;23;20110;-91
2023/09/13 01:48:31;;;;;;;16.05;10.73;;;;;;;16.73;100.00;97944.09;3165865;23;20045;-91
2023/09/13 01:49:48;;;;;;;13.00;10.15;;;;;;;16.85;100.00;97939.00;3150458;23;20124;-90
2023/09/13 01:51:04;;;;;;;17.05;9.75;;;;;;;16.89;100.00;97937.88;3167531;23;20025;-93
2023/09/13 01:52:19;;;;;;;15.43;10.18;;;;;;;16.87;100.00;97942.41;3153303;23;20027;-90
2023/09/13 01:53:44;;;;;;;12.57;9.65;;;;;;;16.68;100.00;97943.53;3155388;23;20517;-91
2023/09/13 01:55:05;;;;;;;14.73;9.65;;;;;;;16.85;100.00;97946.94;3149244;23;20078;-90
2023/09/13 01:56:21;;;;;;;12.60;9.57;;;;;;;16.81;100.00;97938.34;3155775;23;20355;-91
2023/09/13 01:57:36;;;;;;;13.27;9.60;;;;;;;16.77;100.00;97947.41;3148600;23;20022;-90
2023/09/13 01:58:52;;;;;;;16.02;10.80;;;;;;;16.84;100.00;97940.81;3149204;23;20026;-90
2023/09/13 02:00:08;;;;;;;14.63;10.43;;;;;;;16.85;100.00;97949.59;3153942;23;20032;-90
2023/09/13 02:01:24;;;;;;;15.75;11.00;;;;;;;16.66;100.00;97946.28;3148713;23;20018;-92
2023/09/13 02:02:39;;;;;;;15.35;10.50;;;;;;;16.67;100.00;97940.03;3138656;23;20014;-91
2023/09/13 02:03:55;;;;;;;15.38;10.02;;;;;;;16.62;100.00;97950.06;3155435;23;20018;-90
2023/09/13 02:05:10;;;;;;;13.40;10.60;;;;;;;16.30;100.00;97941.41;3147564;23;20033;-89
2023/09/13 02:06:26;;;;;;;13.45;10.05;;;;;;;16.21;100.00;97938.41;3154817;23;20029;-92
2023/09/13 02:07:42;;;;;;;15.13;10.13;;;;;;;16.22;100.00;97942.75;3147294;23;20022;-91
2023/09/13 02:08:57;;;;;;;14.57;10.27;;;;;;;16.38;100.00;97944.47;3138239;23;20026;-93
2023/09/13 02:10:13;;;;;;;16.05;10.95;;;;;;;16.45;100.00;97943.13;3155378;23;20048;-91
2023/09/13 02:11:29;;;;;;;22.00;10.90;;;;;;;16.44;100.00;97936.16;3163995;23;20169;-90
2023/09/13 02:12:44;;;;;;;16.90;10.75;;;;;;;16.61;100.00;97940.44;3149001;23;20030;-90
2023/09/13 02:14:00;;;;;;;14.38;10.50;;;;;;;16.60;100.00;97945.78;3154015;23;20025;-93
2023/09/13 02:15:15;;;;;;;14.70;10.23;;;;;;;16.32;100.00;97939.53;3164887;23;20025;-92
2023/09/13 02:16:31;;;;;;;14.50;10.07;;;;;;;16.41;100.00;97940.75;3164897;23;20054;-92
2023/09/13 02:17:47;;;;;;;14.57;10.15;;;;;;;16.36;100.00;97941.06;3164083;23;20022;-93
2023/09/13 02:19:04;;;;;;;14.55;10.60;;;;;;;16.50;100.00;97946.38;3148595;23;20026;-92
2023/09/13 02:20:19;;;;;;;14.45;10.10;;;;;;;16.33;100.00;97941.22;3153656;23;20053;-92
2023/09/13 02:21:35;;;;;;;14.45;10.63;;;;;;;16.46;100.00;97942.19;3147476;23;20022;-92
2023/09/13 02:22:50;;;;;;;13.88;10.88;;;;;;;16.38;100.00;97939.19;3137888;23;20073;-93
2023/09/13 02:24:06;;;;;;;14.85;9.98;;;;;;;16.32;100.00;97944.81;3155511;23;20017;-92
2023/09/13 02:25:22;;;;;;;15.32;10.63;;;;;;;16.46;100.00;97944.84;3163445;23;20406;-91
2023/09/13 02:26:38;;;;;;;16.40;10.35;;;;;;;16.43;100.00;97947.66;3164377;23;20032;-93
2023/09/13 02:27:54;;;;;;;13.55;10.63;;;;;;;16.49;100.00;97946.44;3149166;23;20565;-92
2023/09/13 02:29:09;;;;;;;18.52;10.60;;;;;;;16.49;100.00;97947.31;3147550;23;20030;-92
2023/09/13 02:30:25;;;;;;;15.23;10.98;;;;;;;16.69;100.00;97944.38;3153925;23;20026;-92
2023/09/13 02:31:42;;;;;;;15.73;11.27;;;;;;;16.65;100.00;97943.75;3152886;23;20014;-92
2023/09/13 02:32:57;;;;;;;14.27;10.52;;;;;;;16.65;100.00;97944.56;3163172;23;20021;-92
2023/09/13 02:34:13;;;;;;;13.32;10.38;;;;;;;16.65;100.00;97946.38;3147271;23;20097;-92
2023/09/13 02:35:30;;;;;;;17.90;10.98;;;;;;;16.64;100.00;97942.03;3154181;23;20321;-92
2023/09/13 02:36:45;;;;;;;15.90;10.93;;;;;;;16.72;100.00;97942.41;3164993;23;20026;-92
2023/09/13 02:38:01;;;;;;;14.10;10.35;;;;;;;16.81;100.00;97948.91;3163601;23;20029;-92
2023/09/13 02:39:34;;;;;;;13.85;10.73;;;;;;;16.78;100.00;97946.47;3162931;23;20738;-93
2023/09/13 02:40:49;;;;;;;;;;;;;;;16.86;100.00;97940.72;3147918;23;20026;-92
2023/09/13 02:42:06;;;;;;;17.33;9.88;;;;;;;16.89;100.00;97946.66;3138324;23;19921;-91
2023/09/13 02:43:22;;;;;;;14.82;11.05;;;;;;;16.89;100.00;97940.50;3139441;23;20022;-93
2023/09/13 02:44:38;;;;;;;14.45;10.45;;;;;;;16.92;100.00;97941.19;3148980;23;20033;-92
2023/09/13 02:45:53;;;;;;;14.38;10.50;;;;;;;16.79;100.00;97938.47;3138538;23;20109;-92
2023/09/13 02:47:09;;;;;;;15.63;11.40;;;;;;;16.79;100.00;97935.81;3154925;23;20290;-93
2023/09/13 02:48:25;;;;;;;14.68;10.38;;;;;;;16.85;100.00;97936.38;3166660;23;20029;-92
2023/09/13 02:49:41;;;;;;;14.43;10.52;;;;;;;16.92;100.00;97929.78;3148127;23;20097;-92
2023/09/13 02:50:56;;;;;;;13.05;9.82;;;;;;;16.96;100.00;97941.84;3153556;23;20022;-92
2023/09/13 02:52:12;;;;;;;16.02;11.00;;;;;;;16.77;100.00;97935.06;3164094;23;20041;-92
2023/09/13 02:53:28;;;;;;;15.98;11.27;;;;;;;16.82;100.00;97941.84;3147264;23;20049;-92
2023/09/13 02:54:44;;;;;;;15.43;10.38;;;;;;;16.87;100.00;97937.13;3153964;23;20030;-92
2023/09/13 02:56:08;;;;;;;15.82;10.25;;;;;;;16.73;100.00;97935.34;3149079;23;20130;-91
2023/09/13 02:57:25;;;;;;;14.75;10.18;;;;;;;16.88;100.00;97937.03;3141870;23;20070;-92
2023/09/13 02:58:41;;;;;;;14.90;10.70;;;;;;;16.77;100.00;97939.47;3139317;23;20025;-92
2023/09/13 02:59:57;;;;;;;14.93;10.55;;;;;;;16.65;100.00;97936.66;3155050;23;20022;-91
2023/09/13 03:01:12;;;;;;;14.70;10.57;;;;;;;16.53;100.00;97942.66;3162193;23;20328;-92
2023/09/13 03:02:29;;;;;;;13.18;10.52;;;;;;;16.61;100.00;97937.78;3148524;23;20022;-92
2023/09/13 03:03:44;;;;;;;14.20;10.57;;;;;;;16.57;100.00;97941.56;3142646;23;20252;-92
2023/09/13 03:05:00;;;;;;;12.57;9.60;;;;;;;16.59;100.00;97933.53;3147021;23;20038;-92
2023/09/13 03:06:15;;;;;;;14.70;10.40;;;;;;;16.46;100.00;97933.44;3153460;23;20068;-92
2023/09/13 03:07:31;;;;;;;13.00;10.05;;;;;;;16.45;100.00;97922.00;3163473;23;20485;-92
2023/09/13 03:08:47;;;;;;;13.80;10.70;;;;;;;16.55;100.00;97926.72;3164882;23;20018;-92
2023/09/13 03:10:03;;;;;;;14.82;10.80;;;;;;;16.47;100.00;97922.75;3147492;23;20073;-92
2023/09/13 03:11:18;;;;;;;19.10;11.30;;;;;;;16.68;100.00;97922.41;3138276;23;20077;-92
2023/09/13 03:12:34;;;;;;;12.02;9.68;;;;;;;16.69;100.00;97925.88;3153812;23;20025;-91
2023/09/13 03:13:51;;;;;;;13.85;10.43;;;;;;;16.71;100.00;97924.84;3147687;23;20029;-92
2023/09/13 03:15:06;;;;;;;12.73;9.60;;;;;;;16.69;100.00;97929.38;3147177;23;20097;-92
2023/09/13 03:16:22;;;;;;;15.60;10.02;;;;;;;16.63;100.00;97930.59;3137657;23;20455;-92
2023/09/13 03:17:38;;;;;;;12.68;9.55;;;;;;;16.57;100.00;97917.78;3155208;23;20370;-92
2023/09/13 03:18:55;;;;;;;14.93;10.50;;;;;;;16.54;100.00;97927.69;3162938;23;20022;-92
2023/09/13 03:20:11;;;;;;;13.30;10.60;;;;;;;16.56;100.00;97924.00;3148245;23;20033;-91
2023/09/13 03:21:27;;;;;;;13.32;10.60;;;;;;;16.58;100.00;97922.13;3153125;23;20365;-91
2023/09/13 03:22:43;;;;;;;13.88;10.43;;;;;;;16.63;100.00;97921.84;3163174;23;20025;-92
2023/09/13 03:23:58;;;;;;;12.82;9.82;;;;;;;16.61;100.00;97921.94;3163167;23;20076;-92
2023/09/13 03:25:14;;;;;;;13.65;9.35;;;;;;;16.65;100.00;97925.25;3147333;23;20061;-92
2023/09/13 03:26:31;;;;;;;12.18;9.52;;;;;;;16.66;100.00;97919.84;3148499;23;20022;-91
2023/09/13 03:27:48;;;;;;;14.98;9.82;;;;;;;16.72;100.00;97923.06;3138797;23;20355;-93
2023/09/13 03:29:04;;;;;;;11.75;9.75;;;;;;;16.65;100.00;97917.31;3139310;23;20022;-91
2023/09/13 03:30:19;;;;;;;12.48;9.35;;;;;;;16.62;100.00;97917.47;3153562;23;20028;-91
2023/09/13 03:31:36;;;;;;;12.80;10.23;;;;;;;16.63;100.00;97916.56;3163170;23;20018;-92
2023/09/13 03:32:52;;;;;;;14.55;10.52;;;;;;;16.49;100.00;97914.75;3146855;23;20352;-92
2023/09/13 03:34:08;;;;;;;14.25;11.07;;;;;;;16.41;100.00;97914.34;3137910;23;20034;-92
2023/09/13 03:35:23;;;;;;;15.55;10.27;;;;;;;16.37;100.00;97919.00;3158557;23;20026;-92
2023/09/13 03:36:39;;;;;;;13.68;10.35;;;;;;;16.39;100.00;97925.03;3160024;23;20002;-92
2023/09/13 03:37:55;;;;;;;19.05;10.60;;;;;;;16.46;100.00;97912.28;3139527;23;20029;-92
2023/09/13 03:39:11;;;;;;;12.73;10.25;;;;;;;16.45;100.00;97910.59;3153384;23;20036;-92
2023/09/13 03:40:26;;;;;;;15.95;9.80;;;;;;;16.39;100.00;97914.47;3147729;23;20375;-92
2023/09/13 03:41:42;;;;;;;13.48;9.98;;;;;;;16.43;100.00;97912.50;3155575;23;20022;-92
2023/09/13 03:42:58;;;;;;;14.95;10.02;;;;;;;16.37;100.00;97908.44;3163771;23;20025;-92
2023/09/13 03:44:13;;;;;;;18.83;10.45;;;;;;;16.42;100.00;97906.34;3147934;23;20026;-92
2023/09/13 03:45:29;;;;;;;18.42;11.27;;;;;;;16.58;100.00;97910.69;3154340;23;20018;-92
2023/09/13 03:46:44;;;;;;;16.55;11.27;;;;;;;16.57;100.00;97906.34;3164427;23;20029;-91
2023/09/13 03:48:00;;;;;;;14.98;10.38;;;;;;;16.44;100.00;97901.81;3162728;23;20027;-92
2023/09/13 03:49:16;;;;;;;14.45;10.48;;;;;;;16.60;100.00;97908.78;3136128;23;20024;-91
2023/09/13 03:50:32;;;;;;;18.35;10.45;;;;;;;16.58;100.00;97910.69;3143782;23;20045;-92
2023/09/13 03:51:47;;;;;;;14.95;10.15;;;;;;;16.58;100.00;97908.03;3162430;23;20028;-90
2023/09/13 03:53:03;;;;;;;13.40;10.07;;;;;;;16.53;100.00;97903.03;3163887;23;20026;-91
2023/09/13 03:54:19;;;;;;;11.85;9.20;;;;;;;16.41;100.00;97902.00;3163124;23;20096;-92
2023/09/13 03:55:34;;;;;;;13.02;10.05;;;;;;;16.40;100.00;97900.31;3164230;23;20029;-90
2023/09/13 03:56:50;;;;;;;15.25;10.25;;;;;;;16.49;100.00;97902.41;3163118;23;20028;-91
2023/09/13 03:58:05;;;;;;;14.35;11.02;;;;;;;16.52;100.00;97896.91;3147791;23;20026;-90
2023/09/13 03:59:21;;;;;;;13.63;10.48;;;;;;;16.47;100.00;97903.44;3155331;23;20025;-90
2023/09/13 04:00:37;;;;;;;13.82;10.60;;;;;;;16.33;100.00;97893.69;3163033;23;20018;-91
2023/09/13 04:01:52;;;;;;;15.02;10.93;;;;;;;16.35;100.00;97905.84;3148048;23;20054;-92
2023/09/13 04:03:08;;;;;;;15.07;11.07;;;;;;;16.49;100.00;97909.47;3137748;23;20525;-91
2023/09/13 04:04:24;;;;;;;13.27;10.38;;;;;;;16.55;100.00;97913.53;3154101;23;20528;-91
2023/09/13 04:05:39;;;;;;;13.18;9.98;;;;;;;16.52;100.00;97906.63;3162831;23;20029;-89
2023/09/13 04:06:55;;;;;;;13.35;10.00;;;;;;;16.47;100.00;97920.09;3164018;23;20073;-91
2023/09/13 04:08:11;;;;;;;15.43;10.55;;;;;;;16.57;100.00;97914.28;3162794;23;20029;-91
2023/09/13 04:09:26;;;;;;;14.50;10.82;;;;;;;16.49;100.00;97905.03;3162329;23;20018;-91
2023/09/13 04:10:42;;;;;;;13.32;10.35;;;;;;;16.48;100.00;97913.03;3162771;23;20018;-90
2023/09/13 04:11:57;;;;;;;13.95;10.40;;;;;;;16.44;100.00;97911.53;3162501;23;20596;-89
2023/09/13 04:13:13;;;;;;;16.88;11.18;;;;;;;16.37;100.00;97909.25;3164464;23;20018;-89
2023/09/13 04:14:28;;;;;;;15.55;9.90;;;;;;;16.38;100.00;97904.84;3162861;23;20026;-89
2023/09/13 04:15:45;;;;;;;13.15;10.45;;;;;;;16.48;100.00;97902.47;3163966;23;20029;-89
2023/09/13 04:17:00;;;;;;;12.73;9.57;;;;;;;16.45;100.00;97903.50;3162655;23;20916;-90
2023/09/13 04:18:16;;;;;;;15.85;10.80;;;;;;;16.48;100.00;97905.97;3163384;23;20118;-89
2023/09/13 04:19:32;;;;;;;14.88;10.85;;;;;;;16.44;100.00;97906.25;3163050;23;20029;-88
2023/09/13 04:20:47;;;;;;;11.98;9.48;;;;;;;16.45;100.00;97906.16;3163099;23;20018;-89
2023/09/13 04:22:03;;;;;;;15.27;9.88;;;;;;;16.32;100.00;97908.69;3147805;23;20022;-90
2023/09/13 04:23:18;;;;;;;14.85;9.52;;;;;;;16.34;100.00;97914.72;3153212;23;20076;-89
2023/09/13 04:24:34;;;;;;;13.05;10.30;;;;;;;16.36;100.00;97919.94;3148311;23;20205;-88
2023/09/13 04:25:49;;;;;;;18.45;11.15;;;;;;;16.19;100.00;97927.06;3152931;23;20021;-89
2023/09/13 04:27:05;;;;;;;15.95;11.30;;;;;;;16.13;100.00;97926.56;3163531;23;20068;-90
2023/09/13 04:28:21;;;;;;;16.90;11.25;;;;;;;16.20;100.00;97931.41;3163002;23;20806;-89
2023/09/13 04:29:40;;;;;;;16.38;10.05;;;;;;;16.19;100.00;97932.34;3162412;23;20033;-89
2023/09/13 04:30:58;;;;;;;14.73;10.60;;;;;;;16.22;100.00;97932.19;3164213;23;20089;-88
2023/09/13 04:32:14;;;;;;;14.55;9.85;;;;;;;16.10;100.00;97938.19;3146573;23;20035;-89
2023/09/13 04:33:51;;;;;;;14.18;10.52;;;;;;;16.16;100.00;97935.16;3138613;23;20031;-89
2023/09/13 04:35:11;;;;;;;13.65;9.85;;;;;;;16.23;100.00;97938.28;3142178;23;20093;-90
2023/09/13 04:36:27;;;;;;;16.42;10.48;;;;;;;16.08;100.00;97940.06;3139850;23;20022;-90
2023/09/13 04:37:43;;;;;;;16.13;10.80;;;;;;;16.13;100.00;97934.47;3154982;23;20018;-89
2023/09/13 04:38:58;;;;;;;13.48;9.95;;;;;;;15.94;100.00;97928.53;3163382;23;20032;-90
2023/09/13 04:40:14;;;;;;;14.05;10.10;;;;;;;15.81;100.00;97938.06;3146497;23;20033;-89
2023/09/13 04:41:29;;;;;;;14.93;10.85;;;;;;;15.82;100.00;97940.59;3153343;23;20021;-89
2023/09/13 04:43:06;;;;;;;16.25;10.73;;;;;;;15.84;100.00;97943.16;3163140;23;20366;-89
2023/09/13 04:44:22;;;;;;;18.92;11.38;;;;;;;15.95;100.00;97946.06;3163089;23;20466;-89
2023/09/13 04:45:37;;;;;;;15.02;10.88;;;;;;;15.77;100.00;97940.00;3146475;23;20113;-90
2023/09/13 04:46:54;;;;;;;15.57;11.23;;;;;;;15.76;100.00;97937.44;3153574;23;20022;-89
2023/09/13 04:48:09;;;;;;;13.75;10.77;;;;;;;15.80;100.00;97939.84;3146769;23;20299;-90
2023/09/13 04:49:25;;;;;;;14.82;11.00;;;;;;;15.70;100.00;97938.66;3137430;23;20022;-90
2023/09/13 04:50:41;;;;;;;16.40;11.35;;;;;;;15.80;100.00;97936.34;3154113;23;20018;-90
2023/09/13 04:51:59;;;;;;;17.10;11.52;;;;;;;15.80;100.00;97939.84;3162339;23;20029;-90
2023/09/13 04:53:15;;;;;;;19.63;12.23;;;;;;;15.99;100.00;97940.59;3163318;23;20022;-90
2023/09/13 04:54:30;;;;;;;17.50;10.73;;;;;;;15.90;100.00;97950.72;3164414;23;20017;-89
2023/09/13 04:55:46;;;;;;;13.75;10.48;;;;;;;15.80;100.00;97950.38;3147210;23;20057;-89
2023/09/13 04:57:03;;;;;;;15.00;10.40;;;;;;;15.85;100.00;97949.25;3153348;23;20022;-91
2023/09/13 04:58:18;;;;;;;15.52;10.93;;;;;;;16.07;100.00;97952.41;3162833;23;20104;-90
2023/09/13 04:59:45;;;;;;;16.58;11.43;;;;;;;16.12;100.00;97953.91;3163595;23;20026;-89
2023/09/13 05:01:01;;;;;;;16.63;11.80;;;;;;;16.24;100.00;97958.47;3163713;23;20549;-89
2023/09/13 05:02:16;;;;;;;18.90;11.32;;;;;;;16.18;100.00;97964.97;3162447;23;20044;-90
2023/09/13 05:03:32;;;;;;;13.52;10.80;;;;;;;15.88;100.00;97960.50;3162903;23;20102;-90
2023/09/13 05:04:48;;;;;;;17.23;10.93;;;;;;;15.87;100.00;97963.25;3163759;23;20101;-89
2023/09/13 05:06:03;;;;;;;14.57;11.05;;;;;;;16.09;100.00;97962.88;3162342;23;20485;-89
2023/09/13 05:07:19;;;;;;;16.48;11.00;;;;;;;15.81;100.00;97959.16;3164183;23;20021;-90
2023/09/13 05:08:34;;;;;;;17.08;11.90;;;;;;;15.89;100.00;97964.00;3162311;23;20018;-89
2023/09/13 05:09:50;;;;;;;18.80;12.48;;;;;;;16.12;100.00;97962.69;3164070;23;20021;-90
2023/09/13 05:11:05;;;;;;;19.25;12.68;;;;;;;16.20;100.00;97964.88;3162751;23;20022;-89
2023/09/13 05:12:22;;;;;;;18.17;12.20;;;;;;;16.38;100.00;97969.06;3164467;23;20080;-94
2023/09/13 05:13:39;;;;;;;19.67;12.70;;;;;;;16.39;100.00;97969.94;3161753;23;20076;-95
2023/09/13 05:14:54;;;;;;;18.35;11.95;;;;;;;16.56;100.00;97970.72;3136340;23;20447;-92
2023/09/13 05:16:12;;;;;;;18.45;11.85;;;;;;;16.52;100.00;97973.56;3115403;23;20103;-91
2023/09/13 05:17:29;;;;;;;16.10;11.60;;;;;;;16.55;100.00;97969.84;3144782;23;20057;-91
2023/09/13 05:18:45;;;;;;;15.43;11.65;;;;;;;16.66;100.00;97969.22;3157103;23;20022;-89
2023/09/13 05:20:01;;;;;;;17.27;10.75;;;;;;;16.63;100.00;97966.78;3153551;23;20352;-89
2023/09/13 05:21:17;;;;;;;14.65;10.63;;;;;;;16.61;100.00;97963.34;3166485;23;20042;-90
2023/09/13 05:22:33;;;;;;;16.42;11.75;;;;;;;16.66;100.00;97966.59;3171547;23;20018;-90
2023/09/13 05:23:48;;;;;;;15.40;11.10;;;;;;;16.75;100.00;97966.00;3166173;23;20022;-90
2023/09/13 05:25:05;;;;;;;20.13;11.13;;;;;;;16.66;100.00;97961.28;3148084;23;20030;-89
2023/09/13 05:26:20;;;;;;;17.38;11.38;;;;;;;16.61;100.00;97968.63;3152997;23;20489;-89
2023/09/13 05:27:36;;;;;;;16.55;11.63;;;;;;;16.72;100.00;97970.66;3164026;23;20100;-90
2023/09/13 05:28:51;;;;;;;19.20;11.38;;;;;;;16.79;100.00;97972.81;3162865;23;20025;-90
2023/09/13 05:30:07;;;;;;;15.52;11.40;;;;;;;16.85;100.00;97974.25;3163892;23;20050;-91
2023/09/13 05:31:23;;;;;;;20.52;11.65;;;;;;;16.83;100.00;97975.28;3165313;23;20080;-90
2023/09/13 05:32:38;;;;;;;17.65;11.40;;;;;;;16.82;100.00;97978.84;3148223;23;20121;-90
2023/09/13 05:33:54;;;;;;;21.20;12.05;;;;;;;16.87;100.00;97972.34;3140156;23;20530;-92
2023/09/13 05:35:10;;;;;;;19.77;11.80;;;;;;;16.80;100.00;97979.81;3154284;23;20366;-90
2023/09/13 05:36:26;;;;;;;17.55;12.02;;;;;;;16.88;100.00;97987.28;3164308;23;20022;-90
2023/09/13 05:37:41;;;;;;;15.60;11.30;;;;;;;16.90;100.00;97981.88;3147067;23;20554;-90
2023/09/13 05:38:57;;;;;;;15.55;11.32;;;;;;;17.03;100.00;97990.78;3153221;23;20018;-91
2023/09/13 05:40:13;;;;;;;15.68;11.60;;;;;;;17.01;100.00;97990.03;3163268;23;20060;-90
2023/09/13 05:41:28;;;;;;;15.98;11.15;;;;;;;17.14;100.00;97987.50;3147774;23;20025;-91
2023/09/13 05:42:44;;;;;;;16.95;11.57;;;;;;;17.17;100.00;97984.66;3155678;23;20354;-90
2023/09/13 05:44:00;;;;;;;17.45;11.95;;;;;;;17.30;100.00;97982.06;3147677;23;20026;-89
2023/09/13 05:45:16;;;;;;;18.73;11.50;;;;;;;17.25;100.00;97984.16;3141051;23;20022;-95
2023/09/13 05:46:31;;;;;;;17.10;11.15;;;;;;;17.23;100.00;97971.03;3140315;23;20129;-96
2023/09/13 05:47:50;;;;;;;15.20;10.50;;;;;;;17.09;100.00;97968.38;3153507;23;20073;-89
2023/09/13 05:49:06;;;;;;;18.35;10.77;;;;;;;17.12;100.00;97959.44;3162828;23;20025;-89
2023/09/13 05:50:21;;;;;;;15.18;10.60;;;;;;;17.06;100.00;97958.88;3163677;23;20033;-89
2023/09/13 05:51:37;;;;;;;18.15;12.27;;;;;;;17.33;100.00;97952.78;3147710;23;20782;-89